createdAt,value
2022-07-29T00:01:04.003Z,3.50
2022-07-29T00:03:32.015Z,3.07
2022-07-29T00:06:00.880Z,3.93
2022-07-29T00:08:28.982Z,3.87
2022-07-29T00:10:57.011Z,3.77
2022-07-29T00:13:32.179Z,4.03
2022-07-29T00:16:04.368Z,4.33
2022-07-29T00:18:33.164Z,4.13
2022-07-29T00:21:01.369Z,4.20
2022-07-29T00:23:30.718Z,4.10
2022-07-29T00:25:59.565Z,3.60
2022-07-29T00:28:28.933Z,4.57
2022-07-29T00:30:56.907Z,4.03
2022-07-29T00:33:24.869Z,4.30
2022-07-29T00:35:51.929Z,4.13
2022-07-29T00:38:22.076Z,4.13
2022-07-29T00:40:50.274Z,3.77
2022-07-29T00:43:21.587Z,4.20
2022-07-29T00:45:50.953Z,4.23
2022-07-29T00:48:19.018Z,4.40
2022-07-29T00:50:46.987Z,4.43
2022-07-29T00:53:15.391Z,4.47
2022-07-29T00:55:43.437Z,14.07
2022-07-29T00:58:14.015Z,5.07
2022-07-29T01:00:42.592Z,3.97
2022-07-29T01:03:14.222Z,3.90
2022-07-29T01:05:50.117Z,4.33
2022-07-29T01:08:21.368Z,4.07
2022-07-29T01:10:50.073Z,4.10
2022-07-29T01:13:19.784Z,3.60
2022-07-29T01:15:57.343Z,3.60
2022-07-29T01:18:35.691Z,3.97
2022-07-29T01:21:29.573Z,4.13
2022-07-29T01:24:32.124Z,4.30
2022-07-29T01:27:12.473Z,3.97
2022-07-29T01:29:55.572Z,3.90
2022-07-29T01:32:31.002Z,4.33
2022-07-29T01:35:12.388Z,3.40
2022-07-29T01:37:52.636Z,3.80
2022-07-29T01:40:26.282Z,3.40
2022-07-29T01:42:59.121Z,4.03
2022-07-29T01:45:38.961Z,3.87
2022-07-29T01:48:15.294Z,3.50
2022-07-29T01:50:52.307Z,4.00
2022-07-29T01:53:37.697Z,4.10
2022-07-29T01:56:08.470Z,3.60
2022-07-29T01:58:40.748Z,3.70
2022-07-29T02:01:12.891Z,3.43
2022-07-29T02:03:46.976Z,3.70
2022-07-29T02:06:23.075Z,4.37
2022-07-29T02:08:53.093Z,3.63
2022-07-29T02:11:21.212Z,3.90
2022-07-29T02:13:51.328Z,3.20
2022-07-29T02:16:26.320Z,3.90
2022-07-29T02:18:57.509Z,3.70
2022-07-29T02:21:29.023Z,3.73
2022-07-29T02:24:01.357Z,3.70
2022-07-29T02:26:32.356Z,3.33
2022-07-29T02:29:03.150Z,3.47
2022-07-29T02:31:37.392Z,4.13
2022-07-29T02:34:10.370Z,3.50
2022-07-29T02:36:39.977Z,3.87
2022-07-29T02:39:10.942Z,3.60
2022-07-29T02:41:45.598Z,3.27
2022-07-29T02:44:16.891Z,3.70
2022-07-29T02:46:53.742Z,3.80
2022-07-29T02:49:38.707Z,3.60
2022-07-29T02:52:14.549Z,3.73
2022-07-29T02:54:51.090Z,3.47
2022-07-29T02:57:28.649Z,3.67
2022-07-29T03:00:01.006Z,3.17
2022-07-29T03:02:35.488Z,3.17
2022-07-29T03:05:05.971Z,3.57
2022-07-29T03:07:36.008Z,3.63
2022-07-29T03:10:06.299Z,3.47
2022-07-29T03:12:42.819Z,3.57
2022-07-29T03:15:12.187Z,3.50
2022-07-29T03:17:42.580Z,3.53
2022-07-29T03:20:13.484Z,3.60
2022-07-29T03:22:44.641Z,3.43
2022-07-29T03:25:14.503Z,3.50
2022-07-29T03:27:42.678Z,3.70
2022-07-29T03:30:13.104Z,3.33
2022-07-29T03:32:53.005Z,4.07
2022-07-29T03:35:21.410Z,3.43
2022-07-29T03:37:49.610Z,3.47
2022-07-29T03:40:24.473Z,3.20
2022-07-29T03:42:56.509Z,3.47
2022-07-29T03:45:27.305Z,3.57
2022-07-29T03:48:02.987Z,4.20
2022-07-29T03:50:32.810Z,3.50
2022-07-29T03:53:01.076Z,3.83
2022-07-29T03:55:34.413Z,3.67
2022-07-29T03:58:04.090Z,3.83
2022-07-29T04:00:34.377Z,3.33
2022-07-29T04:03:06.157Z,3.53
2022-07-29T04:05:39.449Z,3.43
2022-07-29T04:08:07.983Z,4.10
2022-07-29T04:10:36.090Z,3.70
2022-07-29T04:13:03.999Z,3.80
2022-07-29T04:15:32.048Z,3.40
2022-07-29T04:18:00.819Z,3.57
2022-07-29T04:20:30.063Z,3.70
2022-07-29T04:22:57.913Z,3.50
2022-07-29T04:25:25.711Z,3.33
2022-07-29T04:28:02.721Z,3.60
2022-07-29T04:30:32.564Z,3.50
2022-07-29T04:33:01.739Z,3.30
2022-07-29T04:35:37.959Z,3.70
2022-07-29T04:38:15.537Z,3.37
2022-07-29T04:40:43.932Z,3.33
2022-07-29T04:43:12.552Z,3.43
2022-07-29T04:45:42.167Z,3.50
2022-07-29T04:48:10.328Z,3.37
2022-07-29T04:50:41.929Z,3.47
2022-07-29T04:53:09.930Z,3.07
2022-07-29T04:55:38.982Z,3.37
2022-07-29T04:58:07.178Z,3.70
2022-07-29T05:00:35.643Z,3.70
2022-07-29T05:03:03.553Z,3.60
2022-07-29T05:05:31.845Z,3.47
2022-07-29T05:08:01.115Z,3.60
2022-07-29T05:10:29.758Z,3.53
2022-07-29T05:12:57.597Z,3.23
2022-07-29T05:15:25.646Z,4.33
2022-07-29T05:17:53.467Z,4.00
2022-07-29T05:20:27.019Z,3.60
2022-07-29T05:22:55.056Z,7.03
2022-07-29T05:25:24.662Z,4.00
2022-07-29T05:28:12.516Z,4.40
2022-07-29T05:30:40.795Z,4.33
2022-07-29T05:33:08.865Z,3.67
2022-07-29T05:36:00.288Z,3.93
2022-07-29T05:38:29.101Z,3.40
2022-07-29T05:41:00.872Z,3.57
2022-07-29T05:43:29.415Z,3.50
2022-07-29T05:45:58.056Z,3.43
2022-07-29T05:48:26.659Z,3.93
2022-07-29T05:50:55.483Z,3.50
2022-07-29T05:53:24.080Z,3.17
2022-07-29T05:55:53.944Z,3.50
2022-07-29T05:58:23.327Z,3.77
2022-07-29T06:00:51.390Z,3.83
2022-07-29T06:03:19.433Z,3.80
2022-07-29T06:05:47.458Z,3.47
2022-07-29T06:08:15.488Z,3.50
2022-07-29T06:10:44.124Z,3.43
2022-07-29T06:13:12.333Z,3.50
2022-07-29T06:15:41.804Z,3.17
2022-07-29T06:18:11.106Z,2.93
2022-07-29T06:20:39.216Z,3.30
2022-07-29T06:23:07.859Z,3.13
2022-07-29T06:25:37.639Z,4.07
2022-07-29T06:28:06.290Z,3.13
2022-07-29T06:30:34.496Z,3.10
2022-07-29T06:33:04.839Z,3.17
2022-07-29T06:35:39.013Z,3.47
2022-07-29T06:38:30.812Z,3.63
2022-07-29T06:41:02.172Z,3.37
2022-07-29T06:43:34.856Z,3.07
2022-07-29T06:46:05.821Z,3.90
2022-07-29T06:48:37.055Z,3.07
2022-07-29T06:51:06.090Z,2.97
2022-07-29T06:53:35.242Z,3.17
2022-07-29T06:56:05.208Z,2.90
2022-07-29T06:58:33.422Z,3.47
2022-07-29T07:01:05.370Z,3.37
2022-07-29T07:03:35.602Z,3.30
2022-07-29T07:06:04.365Z,3.00
2022-07-29T07:08:32.519Z,3.77
2022-07-29T07:11:00.587Z,3.08
2022-07-29T07:13:29.179Z,2.85
2022-07-29T07:15:58.476Z,2.92
2022-07-29T07:18:26.537Z,3.10
2022-07-29T07:20:56.016Z,3.20
2022-07-29T07:23:24.082Z,2.97
2022-07-29T07:25:52.152Z,2.67
2022-07-29T07:28:24.662Z,2.88
2022-07-29T07:30:54.433Z,3.30
2022-07-29T07:33:22.581Z,2.72
2022-07-29T07:35:50.807Z,3.03
2022-07-29T07:38:20.174Z,2.97
2022-07-29T07:40:48.346Z,2.33
2022-07-29T07:43:16.450Z,2.80
2022-07-29T07:45:44.496Z,3.10
2022-07-29T07:48:12.456Z,2.97
2022-07-29T07:50:40.815Z,2.67
2022-07-29T07:53:08.954Z,2.67
2022-07-29T07:58:31.286Z,2.38
2022-07-29T08:00:59.396Z,2.38
2022-07-29T08:03:27.445Z,2.33
2022-07-29T08:05:55.412Z,2.65
2022-07-29T08:08:23.545Z,2.55
2022-07-29T08:10:56.851Z,2.47
2022-07-29T08:13:29.025Z,2.30
2022-07-29T08:16:01.236Z,2.00
2022-07-29T08:18:31.825Z,2.45
2022-07-29T08:21:00.717Z,2.22
2022-07-29T08:23:47.822Z,2.20
2022-07-29T08:26:21.088Z,2.13
2022-07-29T08:28:51.236Z,2.35
2022-07-29T08:31:19.748Z,1.63
2022-07-29T08:33:47.888Z,2.10
2022-07-29T08:36:15.887Z,2.17
2022-07-29T08:38:43.868Z,2.10
2022-07-29T08:41:12.021Z,1.98
2022-07-29T08:43:42.799Z,1.90
2022-07-29T08:46:11.082Z,2.05
2022-07-29T08:48:40.847Z,2.30
2022-07-29T08:51:10.460Z,2.03
2022-07-29T08:53:39.017Z,2.35
2022-07-29T08:56:08.135Z,2.22
2022-07-29T08:58:38.222Z,2.35
2022-07-29T09:01:12.445Z,1.60
2022-07-29T09:03:42.693Z,2.30
2022-07-29T09:06:11.654Z,1.90
2022-07-29T09:08:39.717Z,2.00
2022-07-29T09:11:08.373Z,2.22
2022-07-29T09:13:36.932Z,1.95
2022-07-29T09:16:09.605Z,2.30
2022-07-29T09:18:40.328Z,1.85
2022-07-29T09:21:29.076Z,2.42
2022-07-29T09:24:08.804Z,2.40
2022-07-29T09:26:39.040Z,2.22
2022-07-29T09:29:14.895Z,1.88
2022-07-29T09:31:47.392Z,2.15
2022-07-29T09:34:18.488Z,2.33
2022-07-29T09:36:50.584Z,2.38
2022-07-29T09:39:30.840Z,2.28
2022-07-29T09:42:02.619Z,1.98
2022-07-29T09:44:44.805Z,2.53
2022-07-29T09:47:14.735Z,1.90
2022-07-29T09:49:55.557Z,2.70
2022-07-29T09:52:23.574Z,2.00
2022-07-29T09:54:51.758Z,1.50
2022-07-29T09:57:31.152Z,2.10
2022-07-29T10:00:03.158Z,2.42
2022-07-29T10:02:35.761Z,1.95
2022-07-29T10:05:08.161Z,2.15
2022-07-29T10:07:51.874Z,1.98
2022-07-29T10:10:24.946Z,2.55
2022-07-29T10:13:03.093Z,2.22
2022-07-29T10:15:39.979Z,1.80
2022-07-29T10:18:10.240Z,1.90
2022-07-29T10:20:39.642Z,2.13
2022-07-29T10:23:08.211Z,1.83
2022-07-29T10:25:36.155Z,1.70
2022-07-29T10:28:04.335Z,1.70
2022-07-29T10:30:33.531Z,1.58
2022-07-29T10:33:43.242Z,1.75
2022-07-29T10:36:46.569Z,1.90
2022-07-29T10:39:41.725Z,1.80
2022-07-29T10:42:33.484Z,1.60
2022-07-29T10:45:05.635Z,1.70
2022-07-29T10:47:35.158Z,2.03
2022-07-29T10:50:07.280Z,1.90
2022-07-29T10:52:55.475Z,2.05
2022-07-29T10:55:35.985Z,1.90
2022-07-29T10:58:18.938Z,2.03
2022-07-29T11:00:49.392Z,2.30
2022-07-29T11:07:11.319Z,1.90
2022-07-29T11:09:40.454Z,1.48
2022-07-29T11:12:52.106Z,1.80
2022-07-29T11:15:24.873Z,1.85
2022-07-29T11:18:14.959Z,1.67
2022-07-29T11:20:46.693Z,1.85
2022-07-29T11:23:26.209Z,1.92
2022-07-29T11:29:20.755Z,1.92
2022-07-29T11:31:56.661Z,1.80
2022-07-29T11:34:30.200Z,1.77
2022-07-29T11:37:27.988Z,1.73
2022-07-29T11:40:18.239Z,1.80
2022-07-29T11:42:48.200Z,2.30
2022-07-29T11:48:28.693Z,2.25
2022-07-29T11:51:00.461Z,2.28
2022-07-29T11:53:32.524Z,2.30
2022-07-29T11:56:03.412Z,2.05
2022-07-29T11:58:32.817Z,2.20
2022-07-29T12:01:04.712Z,2.13
2022-07-29T12:03:35.709Z,2.15
2022-07-29T12:06:13.070Z,2.35
2022-07-29T12:08:44.940Z,2.60
2022-07-29T12:11:21.777Z,2.35
2022-07-29T12:13:51.135Z,2.25
2022-07-29T12:16:26.092Z,2.90
2022-07-29T12:18:59.805Z,2.60
2022-07-29T12:21:29.082Z,2.30
2022-07-29T12:24:09.050Z,2.05
2022-07-29T12:26:40.357Z,2.40
2022-07-29T12:29:14.751Z,2.30
2022-07-29T12:31:58.006Z,2.45
2022-07-29T12:34:30.273Z,2.58
2022-07-29T12:36:58.982Z,3.70
2022-07-29T12:39:28.931Z,2.53
2022-07-29T12:42:03.860Z,2.70
2022-07-29T12:44:47.298Z,2.67
2022-07-29T12:47:17.207Z,2.53
2022-07-29T12:49:45.252Z,3.05
2022-07-29T12:52:27.779Z,2.85
2022-07-29T12:54:55.850Z,2.67
2022-07-29T12:57:24.961Z,2.60
2022-07-29T13:00:10.260Z,2.97
2022-07-29T13:02:41.996Z,2.78
2022-07-29T13:05:12.023Z,2.30
2022-07-29T13:07:55.274Z,2.60
2022-07-29T13:10:26.761Z,2.60
2022-07-29T13:13:06.282Z,2.50
2022-07-29T13:15:35.100Z,2.65
2022-07-29T13:18:06.073Z,2.70
2022-07-29T13:20:34.725Z,2.65
2022-07-29T13:23:02.959Z,3.17
2022-07-29T13:25:35.314Z,2.50
2022-07-29T13:28:03.185Z,2.33
2022-07-29T13:30:31.117Z,2.63
2022-07-29T13:32:58.955Z,2.95
2022-07-29T13:35:30.630Z,2.63
2022-07-29T13:37:58.473Z,2.55
2022-07-29T13:40:26.917Z,2.60
2022-07-29T13:42:54.883Z,2.30
2022-07-29T13:45:22.966Z,2.70
2022-07-29T13:47:50.900Z,2.40
2022-07-29T13:50:18.902Z,2.60
2022-07-29T13:52:49.333Z,2.85
2022-07-29T13:55:17.224Z,2.83
2022-07-29T13:57:45.092Z,2.97
2022-07-29T14:00:14.753Z,2.63
2022-07-29T14:02:42.849Z,2.20
2022-07-29T14:05:11.930Z,2.47
2022-07-29T14:07:40.637Z,2.70
2022-07-29T14:10:11.238Z,2.88
2022-07-29T14:12:39.906Z,2.85
2022-07-29T14:15:08.952Z,3.28
2022-07-29T14:17:36.996Z,2.65
2022-07-29T14:20:06.397Z,2.75
2022-07-29T14:22:36.874Z,3.22
2022-07-29T14:25:13.090Z,3.13
2022-07-29T14:27:43.979Z,2.95
2022-07-29T14:30:13.616Z,3.13
2022-07-29T14:32:41.595Z,2.50
2022-07-29T14:35:10.458Z,2.50
2022-07-29T14:37:40.503Z,2.63
2022-07-29T14:40:11.700Z,3.50
2022-07-29T14:42:40.366Z,2.70
2022-07-29T14:45:11.199Z,2.40
2022-07-29T14:47:40.366Z,2.85
2022-07-29T14:50:10.500Z,2.65
2022-07-29T14:52:39.023Z,3.00
2022-07-29T14:55:19.419Z,2.53
2022-07-29T14:57:49.078Z,2.95
2022-07-29T15:00:18.064Z,2.85
2022-07-29T15:03:01.461Z,2.70
2022-07-29T15:05:30.069Z,3.35
2022-07-29T15:07:57.906Z,2.95
2022-07-29T15:10:27.986Z,2.70
2022-07-29T15:12:56.074Z,2.65
2022-07-29T15:15:24.246Z,2.63
2022-07-29T15:17:52.140Z,3.00
2022-07-29T15:20:20.518Z,2.80
2022-07-29T15:22:48.392Z,2.70
2022-07-29T15:25:16.305Z,2.67
2022-07-29T15:27:49.726Z,3.25
2022-07-29T15:30:31.582Z,3.15
2022-07-29T15:33:01.068Z,2.75
2022-07-29T15:35:28.901Z,2.83
2022-07-29T15:37:56.753Z,3.10
2022-07-29T15:40:24.626Z,2.88
2022-07-29T15:42:53.891Z,2.70
2022-07-29T15:45:22.014Z,3.17
2022-07-29T15:47:49.879Z,2.60
2022-07-29T15:50:18.739Z,2.58
2022-07-29T15:52:46.969Z,2.90
2022-07-29T15:55:15.642Z,2.60
2022-07-29T15:57:43.833Z,3.33
2022-07-29T16:00:14.590Z,2.25
2022-07-29T16:02:42.403Z,2.63
2022-07-29T16:05:10.929Z,3.08
2022-07-29T16:07:38.843Z,2.45
2022-07-29T16:10:08.056Z,2.60
2022-07-29T16:12:35.889Z,2.58
2022-07-29T16:15:09.478Z,2.53
2022-07-29T16:17:39.089Z,2.70
2022-07-29T16:20:08.918Z,2.53
2022-07-29T16:22:38.426Z,2.35
2022-07-29T16:25:07.683Z,2.28
2022-07-29T16:27:37.960Z,2.30
2022-07-29T16:30:09.602Z,2.38
2022-07-29T16:32:39.811Z,2.03
2022-07-29T16:35:09.943Z,3.50
2022-07-29T16:37:38.284Z,2.38
2022-07-29T16:40:11.583Z,3.00
2022-07-29T16:42:47.709Z,2.40
2022-07-29T16:45:17.970Z,2.53
2022-07-29T16:47:47.315Z,2.63
2022-07-29T16:50:15.350Z,2.30
2022-07-29T16:52:43.301Z,2.50
2022-07-29T16:55:11.209Z,2.25
2022-07-29T16:57:39.194Z,2.05
2022-07-29T17:00:08.874Z,2.10
2022-07-29T17:02:38.713Z,2.17
2022-07-29T17:05:10.555Z,2.47
2022-07-29T17:07:38.392Z,2.63
2022-07-29T17:10:08.194Z,2.30
2022-07-29T17:12:37.306Z,2.65
2022-07-29T17:15:06.025Z,2.47
2022-07-29T17:17:39.132Z,2.50
2022-07-29T17:20:23.444Z,2.13
2022-07-29T17:22:51.379Z,2.15
2022-07-29T17:25:20.871Z,2.22
2022-07-29T17:27:49.695Z,4.10
2022-07-29T17:30:17.921Z,2.30
2022-07-29T17:32:45.982Z,1.90
2022-07-29T17:35:27.854Z,2.20
2022-07-29T17:37:57.416Z,2.22
2022-07-29T17:40:25.459Z,2.08
2022-07-29T17:42:53.340Z,2.40
2022-07-29T17:45:21.236Z,2.40
2022-07-29T17:47:49.038Z,2.38
2022-07-29T17:50:16.895Z,2.13
2022-07-29T17:52:44.802Z,2.60
2022-07-29T17:55:14.263Z,2.22
2022-07-29T17:57:42.129Z,2.05
2022-07-29T18:00:10.905Z,2.03
2022-07-29T18:02:38.928Z,2.00
2022-07-29T18:05:07.305Z,2.50
2022-07-29T18:07:35.157Z,2.22
2022-07-29T18:10:03.043Z,2.40
2022-07-29T18:12:32.205Z,2.65
2022-07-29T18:15:00.106Z,2.40
2022-07-29T18:17:35.085Z,2.35
2022-07-29T18:20:16.875Z,2.50
2022-07-29T18:22:44.811Z,2.60
2022-07-29T18:25:12.885Z,2.10
2022-07-29T18:27:42.040Z,2.20
2022-07-29T18:30:10.727Z,2.42
2022-07-29T18:32:38.577Z,2.88
2022-07-29T18:35:07.413Z,3.00
2022-07-29T18:38:01.579Z,2.33
2022-07-29T18:40:25.726Z,2.22
2022-07-29T18:42:55.661Z,2.05
2022-07-29T18:45:28.281Z,2.45
2022-07-29T18:47:56.900Z,2.25
2022-07-29T18:50:29.179Z,3.83
2022-07-29T18:52:58.776Z,2.47
2022-07-29T18:55:27.549Z,2.13
2022-07-29T18:57:57.471Z,2.17
2022-07-29T19:00:26.810Z,2.25
2022-07-29T19:02:54.773Z,2.40
2022-07-29T19:05:23.300Z,2.28
2022-07-29T19:07:51.203Z,2.83
2022-07-29T19:10:19.249Z,2.40
2022-07-29T19:12:47.059Z,2.67
2022-07-29T19:15:20.021Z,2.47
2022-07-29T19:17:48.675Z,2.30
2022-07-29T19:20:17.040Z,2.88
2022-07-29T19:22:45.011Z,2.35
2022-07-29T19:25:13.227Z,2.70
2022-07-29T19:27:43.081Z,2.60
2022-07-29T19:30:12.040Z,2.58
2022-07-29T19:32:41.201Z,2.45
2022-07-29T19:35:27.318Z,2.60
2022-07-29T19:37:57.142Z,2.30
2022-07-29T19:40:25.957Z,2.58
2022-07-29T19:42:54.472Z,2.72
2022-07-29T19:45:24.660Z,2.40
2022-07-29T19:47:59.038Z,2.72
2022-07-29T19:50:29.354Z,2.70
2022-07-29T19:52:57.305Z,2.65
2022-07-29T19:55:25.133Z,2.38
2022-07-29T19:57:53.703Z,2.45
2022-07-29T20:00:23.923Z,2.88
2022-07-29T20:02:53.607Z,2.78
2022-07-29T20:05:21.499Z,3.15
2022-07-29T20:07:56.073Z,2.78
2022-07-29T20:10:24.017Z,2.33
2022-07-29T20:12:53.917Z,2.70
2022-07-29T20:15:23.473Z,2.25
2022-07-29T20:17:56.891Z,2.22
2022-07-29T20:20:26.025Z,2.40
2022-07-29T20:22:54.134Z,2.17
2022-07-29T20:25:22.524Z,2.40
2022-07-29T20:27:52.486Z,2.53
2022-07-29T20:30:20.462Z,2.42
2022-07-29T20:32:49.313Z,2.33
2022-07-29T20:35:20.184Z,2.55
2022-07-29T20:37:52.547Z,2.60
2022-07-29T20:40:25.700Z,2.40
2022-07-29T20:42:53.695Z,2.50
2022-07-29T20:45:23.349Z,2.38
2022-07-29T20:47:52.687Z,2.13
2022-07-29T20:50:24.169Z,2.58
2022-07-29T20:52:53.191Z,2.30
2022-07-29T20:55:22.145Z,2.50
2022-07-29T20:57:50.110Z,2.65
2022-07-29T21:00:18.604Z,2.38
2022-07-29T21:02:47.428Z,2.65
2022-07-29T21:05:15.528Z,2.72
2022-07-29T21:07:44.827Z,2.80
2022-07-29T21:10:14.174Z,2.10
2022-07-29T21:12:42.711Z,2.50
2022-07-29T21:15:13.529Z,2.30
2022-07-29T21:17:46.857Z,2.47
2022-07-29T21:20:16.459Z,1.95
2022-07-29T21:22:46.672Z,2.17
2022-07-29T21:25:14.645Z,2.63
2022-07-29T21:28:00.080Z,2.33
2022-07-29T21:30:28.863Z,2.33
2022-07-29T21:32:56.940Z,2.53
2022-07-29T21:36:02.164Z,2.40
2022-07-29T21:38:16.333Z,2.45
2022-07-29T21:40:45.355Z,2.42
2022-07-29T21:43:13.798Z,2.10
2022-07-29T21:45:42.827Z,2.30
2022-07-29T21:48:11.724Z,2.50
2022-07-29T21:50:41.376Z,3.00
2022-07-29T21:53:11.125Z,2.30
2022-07-29T21:55:43.858Z,2.38
2022-07-29T21:58:12.278Z,2.70
2022-07-29T22:00:41.328Z,2.03
2022-07-29T22:03:09.664Z,2.33
2022-07-29T22:05:37.787Z,1.98
2022-07-29T22:08:06.451Z,2.22
2022-07-29T22:10:34.809Z,2.05
2022-07-29T22:13:04.710Z,2.00
2022-07-29T22:15:33.099Z,2.22
2022-07-29T22:18:01.123Z,2.00
2022-07-29T22:20:29.248Z,2.50
2022-07-29T22:22:57.288Z,2.10
2022-07-29T22:25:25.368Z,2.75
2022-07-29T22:27:53.440Z,1.80
2022-07-29T22:30:22.667Z,2.42
2022-07-29T22:32:50.600Z,2.47
2022-07-29T22:35:18.530Z,2.28
2022-07-29T22:37:46.502Z,2.20
2022-07-29T22:40:14.465Z,2.45
2022-07-29T22:42:42.466Z,2.13
2022-07-29T22:45:11.657Z,3.22
2022-07-29T22:47:48.215Z,2.38
2022-07-29T22:50:17.922Z,2.50
2022-07-29T22:52:46.938Z,2.20
2022-07-29T22:55:15.235Z,2.20
2022-07-29T22:57:43.405Z,2.03
2022-07-29T23:00:13.681Z,1.92
2022-07-29T23:02:43.021Z,2.30
2022-07-29T23:05:11.574Z,2.58
2022-07-29T23:07:39.573Z,2.50
2022-07-29T23:10:08.755Z,2.20
2022-07-29T23:12:37.154Z,2.05
2022-07-29T23:15:05.546Z,2.33
2022-07-29T23:17:36.532Z,1.95
2022-07-29T23:20:09.895Z,3.10
2022-07-29T23:22:39.023Z,2.20
2022-07-29T23:25:08.559Z,2.13
2022-07-29T23:27:36.535Z,2.33
2022-07-29T23:30:06.191Z,3.90
2022-07-29T23:32:34.350Z,2.63
2022-07-29T23:35:02.637Z,2.30
2022-07-29T23:37:32.278Z,2.17
2022-07-29T23:40:00.301Z,1.95
2022-07-29T23:42:28.327Z,2.25
2022-07-29T23:44:56.380Z,2.38
2022-07-29T23:47:24.443Z,2.28
2022-07-29T23:49:52.434Z,2.20
2022-07-29T23:52:20.345Z,2.00
2022-07-29T23:54:49.586Z,2.22
2022-07-29T23:57:17.523Z,2.05
2022-07-29T23:59:45.427Z,2.20
